createdAt,value
2023-02-20T00:02:34.129Z,98735.94
2023-02-20T00:05:36.925Z,98728.19
2023-02-20T00:08:39.724Z,98740.03
2023-02-20T00:11:42.518Z,98738.09
2023-02-20T00:14:46.032Z,98739.91
2023-02-20T00:17:49.184Z,98745.75
2023-02-20T00:20:52.167Z,98735.91
2023-02-20T00:23:54.711Z,98750.06
2023-02-20T00:26:57.268Z,98752.84
2023-02-20T00:30:00.127Z,98748.44
2023-02-20T00:33:02.850Z,98742.44
2023-02-20T00:36:06.140Z,98742.59
2023-02-20T00:39:08.818Z,98740.06
2023-02-20T00:42:11.514Z,98747.25
2023-02-20T00:45:15.934Z,98730.09
2023-02-20T00:48:19.153Z,98717.91
2023-02-20T00:51:21.910Z,98714.44
2023-02-20T00:54:24.568Z,98715.31
2023-02-20T00:57:27.230Z,98727.41
2023-02-20T01:00:32.087Z,98718.50
2023-02-20T01:03:34.952Z,98714.16
2023-02-20T01:06:37.705Z,98716.94
2023-02-20T01:09:40.379Z,98718.50
2023-02-20T01:12:43.179Z,98720.31
2023-02-20T01:15:46.176Z,98721.84
2023-02-20T01:18:52.561Z,98716.81
2023-02-20T01:21:55.396Z,98712.00
2023-02-20T01:24:58.368Z,98707.53
2023-02-20T01:28:01.088Z,98701.44
2023-02-20T01:31:03.824Z,98701.44
2023-02-20T01:34:10.232Z,98693.00
2023-02-20T01:37:16.172Z,98686.25
2023-02-20T01:40:24.026Z,98690.28
2023-02-20T01:43:26.646Z,98679.78
2023-02-20T01:46:29.439Z,98688.31
2023-02-20T01:49:46.576Z,98702.72
2023-02-20T01:52:52.309Z,98695.25
2023-02-20T01:55:59.208Z,98700.59
2023-02-20T01:59:03.704Z,98708.38
2023-02-20T02:02:07.442Z,98695.19
2023-02-20T02:05:11.161Z,98696.09
2023-02-20T02:08:15.080Z,98690.00
2023-02-20T02:11:20.358Z,98674.50
2023-02-20T02:14:23.430Z,98683.66
2023-02-20T02:17:33.244Z,98687.78
2023-02-20T02:20:55.429Z,98686.19
2023-02-20T02:24:31.432Z,98683.00
2023-02-20T02:28:11.602Z,98688.03
2023-02-20T02:31:51.924Z,98674.88
2023-02-20T02:35:09.702Z,98679.31
2023-02-20T02:38:25.532Z,98687.34
2023-02-20T02:42:13.286Z,98682.88
2023-02-20T02:45:40.741Z,98688.44
2023-02-20T02:48:48.119Z,98680.00
2023-02-20T02:51:52.151Z,98681.63
2023-02-20T02:54:56.571Z,98675.81
2023-02-20T02:57:59.163Z,98682.13
2023-02-20T03:01:02.465Z,98673.31
2023-02-20T03:04:08.014Z,98675.81
2023-02-20T03:07:16.452Z,98681.13
2023-02-20T03:10:32.196Z,98674.22
2023-02-20T03:14:01.107Z,98672.63
2023-02-20T03:17:15.507Z,98678.41
2023-02-20T03:20:21.803Z,98668.84
2023-02-20T03:23:27.608Z,98675.66
2023-02-20T03:26:33.800Z,98671.47
2023-02-20T03:29:39.718Z,98667.31
2023-02-20T03:33:02.060Z,98671.09
2023-02-20T03:36:27.891Z,98664.78
2023-02-20T03:39:56.127Z,98662.16
2023-02-20T03:43:20.929Z,98673.38
2023-02-20T03:46:24.673Z,98675.53
2023-02-20T03:49:32.181Z,98685.03
2023-02-20T03:52:35.209Z,98691.47
2023-02-20T03:55:38.304Z,98684.78
2023-02-20T03:58:48.412Z,98683.88
2023-02-20T04:01:55.717Z,98677.94
2023-02-20T04:04:58.740Z,98674.97
2023-02-20T04:08:15.769Z,98678.31
2023-02-20T04:11:30.132Z,98696.47
2023-02-20T04:14:33.329Z,98702.34
2023-02-20T04:17:46.781Z,98698.78
2023-02-20T04:20:54.108Z,98705.31
2023-02-20T04:24:43.388Z,98698.34
2023-02-20T04:27:46.462Z,98696.94
2023-02-20T04:30:49.815Z,98701.75
2023-02-20T04:33:53.368Z,98694.53
2023-02-20T04:37:19.561Z,98688.38
2023-02-20T04:40:25.450Z,98693.09
2023-02-20T04:43:28.929Z,98693.56
2023-02-20T04:46:32.488Z,98699.13
2023-02-20T04:49:35.225Z,98692.88
2023-02-20T04:52:41.946Z,98696.53
2023-02-20T04:55:44.981Z,98685.81
2023-02-20T04:58:52.258Z,98669.75
2023-02-20T05:01:57.161Z,98678.19
2023-02-20T05:04:59.868Z,98675.97
2023-02-20T05:08:06.947Z,98680.41
2023-02-20T05:11:09.581Z,98672.88
2023-02-20T05:14:12.543Z,98679.19
2023-02-20T05:17:15.415Z,98668.88
2023-02-20T05:20:18.998Z,98676.97
2023-02-20T05:23:21.672Z,98681.38
2023-02-20T05:26:24.443Z,98680.94
2023-02-20T05:29:27.181Z,98684.25
2023-02-20T05:32:31.049Z,98680.97
2023-02-20T05:35:36.090Z,98688.81
2023-02-20T05:38:38.772Z,98691.16
2023-02-20T05:41:41.998Z,98698.03
2023-02-20T05:44:45.200Z,98701.69
2023-02-20T05:47:48.311Z,98708.31
2023-02-20T05:50:51.020Z,98712.53
2023-02-20T05:53:54.122Z,98712.91
2023-02-20T05:56:56.888Z,98713.56
2023-02-20T05:59:59.685Z,98716.16
2023-02-20T06:03:02.785Z,98721.47
2023-02-20T06:06:05.825Z,98713.66
2023-02-20T06:09:13.526Z,98716.78
2023-02-20T06:12:16.149Z,98716.84
2023-02-20T06:15:19.050Z,98730.09
2023-02-20T06:18:21.608Z,98730.75
2023-02-20T06:21:25.498Z,98731.00
2023-02-20T06:24:28.240Z,98735.16
2023-02-20T06:27:31.322Z,98733.94
2023-02-20T06:30:34.160Z,98737.91
2023-02-20T06:33:37.286Z,98752.53
2023-02-20T06:36:41.002Z,98745.97
2023-02-20T06:39:46.540Z,98745.97
2023-02-20T06:42:49.135Z,98740.41
2023-02-20T06:45:51.795Z,98758.69
2023-02-20T06:48:57.775Z,98762.34
2023-02-20T06:52:02.501Z,98769.03
2023-02-20T06:55:08.416Z,98764.56
2023-02-20T06:58:11.567Z,98768.03
2023-02-20T07:01:15.700Z,98763.94
2023-02-20T07:04:22.431Z,98757.81
2023-02-20T07:07:25.000Z,98744.38
2023-02-20T07:10:27.693Z,98741.63
2023-02-20T07:13:30.365Z,98745.06
2023-02-20T07:16:33.413Z,98743.03
2023-02-20T07:19:36.169Z,98746.91
2023-02-20T07:22:38.752Z,98744.63
2023-02-20T07:25:42.148Z,98737.50
2023-02-20T07:28:44.726Z,98748.81
2023-02-20T07:31:48.121Z,98747.13
2023-02-20T07:35:03.757Z,98751.25
2023-02-20T07:38:08.794Z,98746.38
2023-02-20T07:41:12.195Z,98731.69
2023-02-20T07:44:15.095Z,98738.22
2023-02-20T07:47:18.588Z,98746.56
2023-02-20T07:50:21.296Z,98743.16
2023-02-20T07:53:24.217Z,98744.13
2023-02-20T07:56:27.573Z,98734.63
2023-02-20T07:59:30.641Z,98735.25
2023-02-20T08:02:33.711Z,98736.09
2023-02-20T08:05:48.546Z,98750.78
2023-02-20T08:08:52.722Z,98749.56
2023-02-20T08:11:56.397Z,98732.91
2023-02-20T08:14:59.370Z,98739.38
2023-02-20T08:18:03.337Z,98733.75
2023-02-20T08:21:07.502Z,98723.63
2023-02-20T08:24:10.179Z,98731.69
2023-02-20T08:27:13.216Z,98725.22
2023-02-20T08:30:24.127Z,98727.41
2023-02-20T08:33:26.907Z,98729.88
2023-02-20T08:36:29.835Z,98743.34
2023-02-20T08:39:33.097Z,98739.91
2023-02-20T08:42:36.260Z,98740.00
2023-02-20T08:45:39.611Z,98735.88
2023-02-20T08:48:42.764Z,98753.22
2023-02-20T08:51:47.743Z,98743.56
2023-02-20T08:54:50.644Z,98751.16
2023-02-20T08:57:53.703Z,98744.25
2023-02-20T09:00:56.834Z,98724.84
2023-02-20T09:03:59.559Z,98721.25
2023-02-20T09:07:02.858Z,98705.03
2023-02-20T09:10:06.244Z,98699.88
2023-02-20T09:13:09.621Z,98699.72
2023-02-20T09:16:14.612Z,98694.34
2023-02-20T09:19:18.585Z,98697.66
2023-02-20T09:22:25.497Z,98692.81
2023-02-20T09:25:28.376Z,98689.75
2023-02-20T09:28:31.230Z,98674.09
2023-02-20T09:31:34.518Z,98671.22
2023-02-20T09:34:37.555Z,98669.94
2023-02-20T09:37:40.792Z,98666.84
2023-02-20T09:40:44.347Z,98667.88
2023-02-20T09:44:08.747Z,98661.94
2023-02-20T09:47:28.256Z,98663.34
2023-02-20T09:50:54.062Z,98664.59
2023-02-20T09:54:09.069Z,98660.97
2023-02-20T09:57:18.866Z,98648.53
2023-02-20T10:00:27.728Z,98651.34
2023-02-20T10:04:07.397Z,98640.22
2023-02-20T10:07:27.061Z,98655.25
2023-02-20T10:10:39.488Z,98651.06
2023-02-20T10:13:52.921Z,98658.31
2023-02-20T10:17:18.959Z,98653.56
2023-02-20T10:21:02.326Z,98648.53
2023-02-20T10:24:22.329Z,98656.25
2023-02-20T10:27:40.320Z,98653.19
2023-02-20T10:30:47.664Z,98642.50
2023-02-20T10:33:55.904Z,98632.63
2023-02-20T10:37:11.353Z,98618.06
2023-02-20T10:40:49.198Z,98620.75
2023-02-20T10:44:02.061Z,98626.44
2023-02-20T10:47:05.921Z,98610.47
2023-02-20T10:50:21.355Z,98605.97
2023-02-20T10:53:27.341Z,98601.78
2023-02-20T10:56:51.895Z,98578.56
2023-02-20T11:00:03.195Z,98573.56
2023-02-20T11:03:41.550Z,98574.25
2023-02-20T11:06:55.113Z,98568.22
2023-02-20T11:09:58.242Z,98567.28
2023-02-20T11:13:03.954Z,98563.25
2023-02-20T11:16:09.789Z,98551.91
2023-02-20T11:19:33.302Z,98545.16
2023-02-20T11:22:57.327Z,98541.31
2023-02-20T11:26:18.904Z,98525.38
2023-02-20T11:29:24.199Z,98544.09
2023-02-20T11:32:34.802Z,98529.38
2023-02-20T11:35:39.341Z,98518.94
2023-02-20T11:38:42.549Z,98502.84
2023-02-20T11:41:45.225Z,98506.75
2023-02-20T11:45:12.443Z,98500.91
2023-02-20T11:48:17.942Z,98494.53
2023-02-20T11:51:39.028Z,98492.97
2023-02-20T11:54:41.818Z,98497.88
2023-02-20T11:57:45.237Z,98491.56
2023-02-20T12:00:50.368Z,98485.59
2023-02-20T12:03:58.181Z,98480.97
2023-02-20T12:07:01.535Z,98472.19
2023-02-20T12:10:10.606Z,98471.47
2023-02-20T12:13:16.305Z,98474.13
2023-02-20T12:16:19.110Z,98472.47
2023-02-20T12:19:48.576Z,98474.69
2023-02-20T12:23:05.335Z,98471.66
2023-02-20T12:26:26.750Z,98475.13
2023-02-20T12:29:43.309Z,98464.47
2023-02-20T12:32:56.789Z,98453.34
2023-02-20T12:36:01.090Z,98439.25
2023-02-20T12:39:29.374Z,98422.03
2023-02-20T12:42:35.035Z,98411.34
2023-02-20T12:45:59.911Z,98415.69
2023-02-20T12:49:38.102Z,98415.56
2023-02-20T12:52:47.203Z,98413.78
2023-02-20T12:56:07.126Z,98401.06
2023-02-20T12:59:29.627Z,98408.03
2023-02-20T13:02:43.101Z,98404.19
2023-02-20T13:05:50.877Z,98401.25
2023-02-20T13:09:02.597Z,98383.66
2023-02-20T13:12:14.453Z,98385.03
2023-02-20T13:15:35.590Z,98388.75
2023-02-20T13:18:52.180Z,98381.06
2023-02-20T13:21:56.652Z,98373.78
2023-02-20T13:25:42.553Z,98367.88
2023-02-20T13:28:46.254Z,98359.25
2023-02-20T13:31:51.014Z,98357.22
2023-02-20T13:34:53.635Z,98339.72
2023-02-20T13:37:57.683Z,98338.97
2023-02-20T13:41:09.817Z,98349.91
2023-02-20T13:44:40.873Z,98334.06
2023-02-20T13:47:43.648Z,98331.09
2023-02-20T13:50:46.834Z,98334.31
2023-02-20T13:53:50.813Z,98331.56
2023-02-20T13:56:59.768Z,98327.81
2023-02-20T14:00:08.955Z,98330.19
2023-02-20T14:03:23.935Z,98329.78
2023-02-20T14:06:28.752Z,98325.16
2023-02-20T14:09:31.886Z,98307.50
2023-02-20T14:12:36.542Z,98308.53
2023-02-20T14:15:46.944Z,98292.97
2023-02-20T14:18:49.507Z,98299.00
2023-02-20T14:21:52.802Z,98310.19
2023-02-20T14:25:25.663Z,98294.22
2023-02-20T14:28:34.094Z,98297.31
2023-02-20T14:31:37.971Z,98287.97
2023-02-20T14:35:17.186Z,98288.28
2023-02-20T14:38:31.996Z,98274.63
2023-02-20T14:41:34.703Z,98265.59
2023-02-20T14:44:38.232Z,98255.91
2023-02-20T14:47:59.278Z,98265.38
2023-02-20T14:51:18.834Z,98269.03
2023-02-20T14:54:24.044Z,98271.13
2023-02-20T14:57:27.528Z,98273.63
2023-02-20T15:00:37.268Z,98265.06
2023-02-20T15:03:40.078Z,98249.09
2023-02-20T15:06:46.093Z,98241.44
2023-02-20T15:09:50.751Z,98244.09
2023-02-20T15:13:07.153Z,98229.13
2023-02-20T15:16:13.482Z,98229.06
2023-02-20T15:19:35.208Z,98220.09
2023-02-20T15:22:39.722Z,98222.50
2023-02-20T15:25:43.525Z,98206.09
2023-02-20T15:28:46.294Z,98195.16
2023-02-20T15:32:04.198Z,98212.94
2023-02-20T15:35:12.813Z,98209.09
2023-02-20T15:38:15.738Z,98219.38
2023-02-20T15:41:18.717Z,98209.63
2023-02-20T15:44:23.008Z,98201.09
2023-02-20T15:47:25.764Z,98205.25
2023-02-20T15:50:29.085Z,98209.41
2023-02-20T15:53:32.870Z,98193.59
2023-02-20T15:56:36.655Z,98185.94
2023-02-20T15:59:39.837Z,98186.88
2023-02-20T16:02:43.553Z,98188.59
2023-02-20T16:05:46.948Z,98186.97
2023-02-20T16:08:51.178Z,98174.38
2023-02-20T16:11:54.144Z,98155.16
2023-02-20T16:14:59.226Z,98167.63
2023-02-20T16:18:02.525Z,98168.25
2023-02-20T16:21:05.893Z,98153.94
2023-02-20T16:24:09.353Z,98167.41
2023-02-20T16:27:24.030Z,98140.81
2023-02-20T16:30:34.241Z,98146.63
2023-02-20T16:33:37.612Z,98137.81
2023-02-20T16:36:40.309Z,98141.22
2023-02-20T16:39:44.065Z,98139.34
2023-02-20T16:42:47.434Z,98132.31
2023-02-20T16:45:50.816Z,98149.63
2023-02-20T16:48:54.160Z,98124.00
2023-02-20T16:52:01.650Z,98141.84
2023-02-20T16:55:07.403Z,98142.31
2023-02-20T16:58:11.256Z,98139.59
2023-02-20T17:01:14.434Z,98129.59
2023-02-20T17:04:19.997Z,98134.06
2023-02-20T17:07:23.343Z,98138.97
2023-02-20T17:10:27.401Z,98134.81
2023-02-20T17:13:30.207Z,98141.22
2023-02-20T17:16:33.280Z,98137.31
2023-02-20T17:19:41.024Z,98142.59
2023-02-20T17:22:46.745Z,98137.31
2023-02-20T17:25:49.753Z,98133.38
2023-02-20T17:28:54.201Z,98133.56
2023-02-20T17:31:57.729Z,98127.75
2023-02-20T17:35:01.867Z,98120.25
2023-02-20T17:38:05.540Z,98121.31
2023-02-20T17:41:08.419Z,98104.25
2023-02-20T17:44:12.553Z,98095.53
2023-02-20T17:47:16.108Z,98090.84
2023-02-20T17:50:19.127Z,98097.75
2023-02-20T17:53:22.683Z,98096.19
2023-02-20T17:56:25.916Z,98094.81
2023-02-20T17:59:30.891Z,98102.19
2023-02-20T18:02:34.530Z,98092.28
2023-02-20T18:05:38.164Z,98099.88
2023-02-20T18:08:41.077Z,98094.59
2023-02-20T18:11:45.478Z,98091.28
2023-02-20T18:14:48.480Z,98076.41
2023-02-20T18:17:51.565Z,98080.59
2023-02-20T18:20:55.226Z,98078.28
2023-02-20T18:23:59.182Z,98069.13
2023-02-20T18:27:02.839Z,98066.63
2023-02-20T18:30:06.187Z,98066.97
2023-02-20T18:33:09.969Z,98062.47
2023-02-20T18:36:13.601Z,98043.09
2023-02-20T18:39:17.614Z,98062.91
2023-02-20T18:42:20.563Z,98049.63
2023-02-20T18:45:24.890Z,98055.22
2023-02-20T18:48:27.751Z,98059.75
2023-02-20T18:51:33.563Z,98055.56
2023-02-20T18:54:36.776Z,98059.09
2023-02-20T18:57:40.011Z,98046.31
2023-02-20T19:00:43.982Z,98056.72
2023-02-20T19:03:48.886Z,98043.78
2023-02-20T19:06:52.541Z,98040.72
2023-02-20T19:09:56.848Z,98023.53
2023-02-20T19:12:59.742Z,98040.28
2023-02-20T19:16:03.246Z,98042.34
2023-02-20T19:19:08.163Z,98048.16
2023-02-20T19:22:14.363Z,98029.22
2023-02-20T19:25:19.963Z,98028.28
2023-02-20T19:28:22.950Z,98029.13
2023-02-20T19:31:26.437Z,98030.31
2023-02-20T19:34:29.396Z,98022.81
2023-02-20T19:37:32.729Z,98013.47
2023-02-20T19:40:35.703Z,98020.31
2023-02-20T19:43:38.721Z,98012.25
2023-02-20T19:46:42.046Z,98003.56
2023-02-20T19:49:48.642Z,97998.72
2023-02-20T19:52:52.069Z,98013.44
2023-02-20T19:55:55.266Z,98001.19
2023-02-20T19:58:58.943Z,98012.94
2023-02-20T20:02:02.489Z,97999.56
2023-02-20T20:05:06.264Z,97991.84
2023-02-20T20:08:09.156Z,98000.03
2023-02-20T20:11:12.517Z,97977.03
2023-02-20T20:14:16.382Z,97971.69
2023-02-20T20:17:19.598Z,97966.91
2023-02-20T20:20:25.574Z,97952.09
2023-02-20T20:23:29.456Z,97952.41
2023-02-20T20:26:36.566Z,97966.03
2023-02-20T20:29:44.510Z,97953.81
2023-02-20T20:32:50.348Z,97949.56
2023-02-20T20:35:54.088Z,97937.97
2023-02-20T20:38:57.088Z,97944.34
2023-02-20T20:41:59.942Z,97948.75
2023-02-20T20:45:03.310Z,97920.81
2023-02-20T20:48:06.819Z,97907.38
2023-02-20T20:51:16.544Z,97930.06
2023-02-20T20:54:20.172Z,97907.75
2023-02-20T20:57:26.054Z,97911.63
2023-02-20T21:00:31.681Z,97908.84
2023-02-20T21:03:34.885Z,97904.72
2023-02-20T21:06:38.445Z,97916.56
2023-02-20T21:09:43.479Z,97907.16
2023-02-20T21:12:47.244Z,97888.84
2023-02-20T21:15:50.637Z,97857.06
2023-02-20T21:18:53.948Z,97887.59
2023-02-20T21:21:57.043Z,97872.75
2023-02-20T21:25:00.461Z,97869.91
2023-02-20T21:28:04.049Z,97872.41
2023-02-20T21:31:07.564Z,97865.72
2023-02-20T21:34:11.572Z,97863.81
2023-02-20T21:37:14.654Z,97861.56
2023-02-20T21:40:19.136Z,97866.78
2023-02-20T21:43:40.549Z,97849.44
2023-02-20T21:46:44.080Z,97855.75
2023-02-20T21:49:48.128Z,97859.47
2023-02-20T21:52:51.718Z,97869.03
2023-02-20T21:55:54.436Z,97854.16
2023-02-20T21:59:06.076Z,97859.13
2023-02-20T22:02:18.231Z,97858.88
2023-02-20T22:05:21.165Z,97857.91
2023-02-20T22:08:42.657Z,97851.94
2023-02-20T22:12:04.426Z,97851.38
2023-02-20T22:15:33.370Z,97853.91
2023-02-20T22:18:54.623Z,97857.50
2023-02-20T22:22:19.937Z,97855.81
2023-02-20T22:25:41.842Z,97860.13
2023-02-20T22:29:03.195Z,97860.78
2023-02-20T22:32:25.403Z,97858.84
2023-02-20T22:35:46.935Z,97863.03
2023-02-20T22:39:10.856Z,97858.31
2023-02-20T22:42:35.128Z,97856.81
2023-02-20T22:45:56.869Z,97843.34
2023-02-20T22:49:18.351Z,97834.50
2023-02-20T22:52:40.491Z,97857.50
2023-02-20T22:56:02.114Z,97841.78
2023-02-20T22:59:23.824Z,97831.69
2023-02-20T23:02:46.719Z,97835.66
2023-02-20T23:06:17.530Z,97844.91
2023-02-20T23:09:39.875Z,97843.22
2023-02-20T23:13:01.654Z,97836.19
2023-02-20T23:16:22.933Z,97846.66
2023-02-20T23:19:44.182Z,97847.28
2023-02-20T23:23:05.906Z,97847.03
2023-02-20T23:26:30.249Z,97847.31
2023-02-20T23:29:54.242Z,97837.78
2023-02-20T23:33:18.213Z,97837.78
2023-02-20T23:36:39.686Z,97839.53
2023-02-20T23:40:00.800Z,97849.25
2023-02-20T23:43:25.861Z,97844.56
2023-02-20T23:46:47.017Z,97837.66
2023-02-20T23:50:08.601Z,97838.75
2023-02-20T23:53:29.767Z,97818.09
2023-02-20T23:56:51.156Z,97814.13
